createdAt,value
2023-04-26T00:02:21.986Z,98013.22
2023-04-26T00:07:52.892Z,98021.38
2023-04-26T00:13:08.450Z,98027.28
2023-04-26T00:15:41.324Z,98018.44
2023-04-26T00:18:15.777Z,98037.00
2023-04-26T00:20:48.285Z,98022.94
2023-04-26T00:23:22.465Z,98042.38
2023-04-26T00:25:55.937Z,98020.59
2023-04-26T00:28:26.297Z,98046.09
2023-04-26T00:30:57.835Z,98041.78
2023-04-26T00:36:24.716Z,98045.47
2023-04-26T00:38:55.912Z,98042.25
2023-04-26T00:41:37.021Z,98051.72
2023-04-26T00:44:11.142Z,98041.63
2023-04-26T00:46:46.781Z,98046.53
2023-04-26T00:49:20.391Z,98054.75
2023-04-26T00:51:53.963Z,98046.28
2023-04-26T00:54:24.831Z,98053.66
2023-04-26T00:56:55.849Z,98062.53
2023-04-26T00:59:26.660Z,98065.72
2023-04-26T01:02:03.853Z,98067.94
2023-04-26T01:04:42.319Z,98070.47
2023-04-26T01:07:15.688Z,98076.34
2023-04-26T01:09:55.504Z,98073.31
2023-04-26T01:12:35.288Z,98077.94
2023-04-26T01:15:08.937Z,98079.06
2023-04-26T01:17:42.819Z,98084.59
2023-04-26T01:20:13.665Z,98084.41
2023-04-26T01:22:44.819Z,98088.91
2023-04-26T01:25:20.917Z,98085.91
2023-04-26T01:27:54.217Z,98085.38
2023-04-26T01:30:29.043Z,98103.97
2023-04-26T01:32:59.089Z,98095.97
2023-04-26T01:35:31.762Z,98104.66
2023-04-26T01:38:04.837Z,98094.06
2023-04-26T01:40:36.453Z,98094.66
2023-04-26T01:43:09.966Z,98098.66
2023-04-26T01:45:41.716Z,98095.00
2023-04-26T01:48:38.017Z,98101.09
2023-04-26T01:51:12.916Z,98099.75
2023-04-26T01:53:43.633Z,98104.13
2023-04-26T01:56:20.359Z,98107.75
2023-04-26T01:58:51.924Z,98114.31
2023-04-26T02:01:26.767Z,98119.47
2023-04-26T02:04:01.601Z,98120.66
2023-04-26T02:06:31.903Z,98100.31
2023-04-26T02:09:02.388Z,98118.47
2023-04-26T02:11:39.784Z,98136.88
2023-04-26T02:14:11.624Z,98121.63
2023-04-26T02:16:48.413Z,98138.28
2023-04-26T02:19:28.530Z,98140.69
2023-04-26T02:22:09.597Z,98115.28
2023-04-26T02:24:43.438Z,98148.69
2023-04-26T02:27:30.851Z,98135.25
2023-04-26T02:30:04.611Z,98141.25
2023-04-26T02:35:26.077Z,98139.88
2023-04-26T02:38:00.061Z,98140.75
2023-04-26T02:40:31.135Z,98139.66
2023-04-26T02:43:05.463Z,98148.44
2023-04-26T02:45:36.685Z,98144.59
2023-04-26T02:48:08.500Z,98145.16
2023-04-26T02:50:43.411Z,98142.41
2023-04-26T02:53:24.851Z,98151.69
2023-04-26T02:56:02.347Z,98150.34
2023-04-26T02:58:35.884Z,98141.59
2023-04-26T03:01:07.217Z,98150.34
2023-04-26T03:03:37.656Z,98149.78
2023-04-26T03:06:10.513Z,98156.91
2023-04-26T03:08:42.414Z,98153.91
2023-04-26T03:11:14.164Z,98167.84
2023-04-26T03:13:44.139Z,98173.34
2023-04-26T03:16:29.751Z,98168.06
2023-04-26T03:19:00.456Z,98166.94
2023-04-26T03:21:35.183Z,98170.81
2023-04-26T03:26:51.608Z,98164.81
2023-04-26T03:29:24.429Z,98161.00
2023-04-26T03:31:57.979Z,98179.56
2023-04-26T03:34:31.111Z,98171.63
2023-04-26T03:37:07.961Z,98176.31
2023-04-26T03:39:44.115Z,98174.94
2023-04-26T03:42:13.304Z,98172.47
2023-04-26T03:44:43.781Z,98177.69
2023-04-26T03:47:19.702Z,98186.47
2023-04-26T03:49:53.314Z,98200.38
2023-04-26T03:52:31.972Z,98183.44
2023-04-26T03:55:05.728Z,98184.53
2023-04-26T03:57:44.216Z,98195.72
2023-04-26T04:00:13.904Z,98181.91
2023-04-26T04:02:55.756Z,98199.47
2023-04-26T04:05:29.308Z,98212.22
2023-04-26T04:08:00.243Z,98217.69
2023-04-26T04:10:33.008Z,98213.94
2023-04-26T04:13:04.874Z,98210.16
2023-04-26T04:15:49.755Z,98212.38
2023-04-26T04:18:24.404Z,98225.50
2023-04-26T04:20:55.238Z,98229.56
2023-04-26T04:23:36.628Z,98237.25
2023-04-26T04:26:10.691Z,98242.81
2023-04-26T04:28:40.120Z,98229.41
2023-04-26T04:31:16.767Z,98250.00
2023-04-26T04:33:54.349Z,98258.19
2023-04-26T04:36:24.691Z,98265.84
2023-04-26T04:39:00.300Z,98257.81
2023-04-26T04:41:36.476Z,98274.84
2023-04-26T04:46:57.068Z,98274.31
2023-04-26T04:49:29.157Z,98279.84
2023-04-26T04:51:57.736Z,98271.06
2023-04-26T04:57:28.175Z,98262.31
2023-04-26T05:00:08.027Z,98262.31
2023-04-26T05:02:40.697Z,98258.50
2023-04-26T05:05:37.353Z,98255.75
2023-04-26T05:08:11.266Z,98253.25
2023-04-26T05:10:42.075Z,98262.88
2023-04-26T05:13:12.639Z,98268.34
2023-04-26T05:15:45.733Z,98269.41
2023-04-26T05:18:17.463Z,98266.97
2023-04-26T05:20:56.510Z,98278.72
2023-04-26T05:23:27.465Z,98277.56
2023-04-26T05:26:00.226Z,98285.53
2023-04-26T05:29:07.860Z,98291.03
2023-04-26T05:31:57.006Z,98295.69
2023-04-26T05:34:47.236Z,98302.53
2023-04-26T05:37:32.891Z,98304.16
2023-04-26T05:40:08.022Z,98308.22
2023-04-26T05:42:52.796Z,98296.75
2023-04-26T05:45:25.817Z,98318.03
2023-04-26T05:47:59.328Z,98294.50
2023-04-26T05:50:30.429Z,98310.34
2023-04-26T05:53:07.069Z,98319.66
2023-04-26T05:55:40.669Z,98317.72
2023-04-26T05:58:12.215Z,98319.81
2023-04-26T06:00:47.776Z,98317.59
2023-04-26T06:03:29.566Z,98322.50
2023-04-26T06:06:04.996Z,98319.47
2023-04-26T06:08:35.558Z,98322.78
2023-04-26T06:11:04.159Z,98324.94
2023-04-26T06:13:42.928Z,98295.88
2023-04-26T06:16:17.786Z,98309.75
2023-04-26T06:18:49.662Z,98310.81
2023-04-26T06:21:20.680Z,98310.59
2023-04-26T06:23:54.660Z,98296.41
2023-04-26T06:27:08.267Z,98310.63
2023-04-26T06:29:49.044Z,98281.84
2023-04-26T06:32:18.367Z,98299.59
2023-04-26T06:34:52.224Z,98305.69
2023-04-26T06:37:30.680Z,98302.81
2023-04-26T06:40:05.559Z,98298.78
2023-04-26T06:42:44.316Z,98296.44
2023-04-26T06:45:27.939Z,98298.69
2023-04-26T06:48:03.240Z,98296.22
2023-04-26T06:50:41.638Z,98280.81
2023-04-26T06:53:09.705Z,98295.16
2023-04-26T06:55:55.683Z,98292.56
2023-04-26T06:58:26.723Z,98293.00
2023-04-26T07:01:13.062Z,98286.84
2023-04-26T07:03:47.422Z,98282.97
2023-04-26T07:09:10.926Z,98289.31
2023-04-26T07:11:49.887Z,98278.09
2023-04-26T07:14:24.233Z,98292.91
2023-04-26T07:16:54.502Z,98285.41
2023-04-26T07:19:26.845Z,98277.31
2023-04-26T07:21:58.556Z,98275.09
2023-04-26T07:24:34.297Z,98278.69
2023-04-26T07:27:06.460Z,98278.66
2023-04-26T07:29:38.949Z,98263.72
2023-04-26T07:32:20.456Z,98276.06
2023-04-26T07:34:56.427Z,98262.16
2023-04-26T07:37:35.249Z,98271.72
2023-04-26T07:40:09.064Z,98249.91
2023-04-26T07:42:40.823Z,98260.34
2023-04-26T07:45:19.043Z,98239.03
2023-04-26T07:47:46.822Z,98266.38
2023-04-26T07:50:17.706Z,98262.34
2023-04-26T07:52:54.292Z,98260.25
2023-04-26T07:55:22.115Z,98252.34
2023-04-26T07:57:55.402Z,98247.50
2023-04-26T08:00:28.046Z,98258.19
2023-04-26T08:03:14.550Z,98240.34
2023-04-26T08:05:43.690Z,98238.75
2023-04-26T08:08:26.240Z,98243.00
2023-04-26T08:10:59.540Z,98250.31
2023-04-26T08:13:30.888Z,98213.94
2023-04-26T08:16:07.959Z,98244.09
2023-04-26T08:18:52.339Z,98242.00
2023-04-26T08:21:22.799Z,98240.50
2023-04-26T08:23:54.307Z,98232.47
2023-04-26T08:26:26.750Z,98237.00
2023-04-26T08:29:00.667Z,98243.25
2023-04-26T08:31:33.548Z,98237.31
2023-04-26T08:34:04.182Z,98251.88
2023-04-26T08:36:40.850Z,98248.56
2023-04-26T08:39:27.115Z,98242.91
2023-04-26T08:42:00.857Z,98243.81
2023-04-26T08:44:48.927Z,98239.94
2023-04-26T08:47:43.578Z,98237.81
2023-04-26T08:50:22.529Z,98246.91
2023-04-26T08:52:58.724Z,98223.28
2023-04-26T08:55:46.019Z,98244.16
2023-04-26T09:03:47.367Z,98257.78
2023-04-26T09:06:17.726Z,98256.97
2023-04-26T09:08:49.101Z,98270.53
2023-04-26T09:11:26.132Z,98251.28
2023-04-26T09:13:56.888Z,98256.25
2023-04-26T09:16:40.242Z,98251.16
2023-04-26T09:22:05.088Z,98228.41
2023-04-26T09:27:49.658Z,98233.88
2023-04-26T09:30:23.207Z,98233.06
2023-04-26T09:33:11.859Z,98223.88
2023-04-26T09:35:44.166Z,98223.34
2023-04-26T09:38:17.809Z,98221.91
2023-04-26T09:41:02.175Z,98229.47
2023-04-26T09:43:43.304Z,98225.63
2023-04-26T09:46:16.656Z,98219.91
2023-04-26T09:48:46.646Z,98199.66
2023-04-26T09:51:20.908Z,98212.84
2023-04-26T09:53:54.978Z,98199.47
2023-04-26T09:56:26.571Z,98210.09
2023-04-26T09:59:05.770Z,98211.84
2023-04-26T10:01:40.939Z,98207.44
2023-04-26T10:04:10.666Z,98188.94
2023-04-26T10:06:39.694Z,98208.28
2023-04-26T10:12:09.016Z,98185.56
2023-04-26T10:14:42.648Z,98204.25
2023-04-26T10:17:14.964Z,98196.22
2023-04-26T10:19:48.393Z,98187.66
2023-04-26T10:22:31.518Z,98160.16
2023-04-26T10:25:01.170Z,98160.25
2023-04-26T10:28:02.110Z,98177.72
2023-04-26T10:30:40.783Z,98171.88
2023-04-26T10:33:21.464Z,98181.50
2023-04-26T10:36:16.941Z,98178.38
2023-04-26T10:39:36.341Z,98170.88
2023-04-26T10:42:36.054Z,98172.72
2023-04-26T10:45:47.169Z,98154.88
2023-04-26T10:48:27.213Z,98164.34
2023-04-26T10:51:17.501Z,98165.13
2023-04-26T10:54:08.606Z,98155.16
2023-04-26T10:56:51.993Z,98154.97
2023-04-26T11:02:30.829Z,98148.72
2023-04-26T11:05:10.350Z,98146.75
2023-04-26T11:07:41.145Z,98127.63
2023-04-26T11:10:31.461Z,98143.41
2023-04-26T11:13:04.715Z,98142.91
2023-04-26T11:15:34.337Z,98132.19
2023-04-26T11:18:06.140Z,98147.81
2023-04-26T11:20:40.767Z,98142.81
2023-04-26T11:23:22.198Z,98142.16
2023-04-26T11:25:57.505Z,98148.09
2023-04-26T11:28:28.781Z,98131.72
2023-04-26T11:31:01.144Z,98131.66
2023-04-26T11:33:38.650Z,98134.00
2023-04-26T11:36:17.502Z,98136.66
2023-04-26T11:38:45.479Z,98127.69
2023-04-26T11:41:13.187Z,98129.63
2023-04-26T11:43:56.067Z,98127.72
2023-04-26T11:46:27.769Z,98110.75
2023-04-26T11:49:02.644Z,98124.91
2023-04-26T11:51:40.103Z,98123.81
2023-04-26T11:54:09.839Z,98116.44
2023-04-26T11:56:43.590Z,98114.16
2023-04-26T11:59:14.210Z,98118.78
2023-04-26T12:01:54.331Z,98111.97
2023-04-26T12:04:33.591Z,98115.72
2023-04-26T12:07:10.770Z,98092.50
2023-04-26T12:09:45.244Z,98127.31
2023-04-26T12:12:23.305Z,98116.44
2023-04-26T12:14:51.090Z,98074.94
2023-04-26T12:17:22.165Z,98099.66
2023-04-26T12:19:54.811Z,98102.28
2023-04-26T12:22:23.807Z,98098.84
2023-04-26T12:24:56.636Z,98080.34
2023-04-26T12:27:33.712Z,98086.84
2023-04-26T12:33:17.475Z,98088.81
2023-04-26T12:36:01.865Z,98066.38
2023-04-26T12:38:52.334Z,98080.91
2023-04-26T12:41:29.283Z,98083.38
2023-04-26T12:43:58.573Z,98090.47
2023-04-26T12:46:37.523Z,98083.44
2023-04-26T12:49:09.051Z,98074.78
2023-04-26T12:51:41.243Z,98071.84
2023-04-26T12:57:08.684Z,98071.22
2023-04-26T12:59:47.328Z,98081.09
2023-04-26T13:02:17.134Z,98076.38
2023-04-26T13:04:56.480Z,98075.63
2023-04-26T13:07:27.083Z,98067.88
2023-04-26T13:10:01.000Z,98079.19
2023-04-26T13:12:31.929Z,98064.63
2023-04-26T13:15:05.927Z,98077.03
2023-04-26T13:17:36.794Z,98066.19
2023-04-26T13:20:15.003Z,98075.69
2023-04-26T13:22:43.891Z,98038.28
2023-04-26T13:25:14.225Z,98075.56
2023-04-26T13:27:44.842Z,98070.34
2023-04-26T13:30:16.631Z,98072.94
2023-04-26T13:32:48.127Z,98074.13
2023-04-26T13:35:29.819Z,98074.53
2023-04-26T13:38:02.258Z,98070.88
2023-04-26T13:40:36.006Z,98065.69
2023-04-26T13:43:04.878Z,98065.53
2023-04-26T13:45:41.680Z,98065.03
2023-04-26T13:48:14.122Z,98058.56
2023-04-26T13:53:30.030Z,98054.88
2023-04-26T13:58:44.940Z,98049.56
2023-04-26T14:01:27.558Z,98032.88
2023-04-26T14:04:05.450Z,98045.91
2023-04-26T14:06:41.165Z,98050.78
2023-04-26T14:09:12.690Z,98056.63
2023-04-26T14:12:04.423Z,98056.00
2023-04-26T14:14:35.811Z,98053.19
2023-04-26T14:17:07.004Z,98052.78
2023-04-26T14:19:38.123Z,98051.16
2023-04-26T14:22:17.299Z,98071.34
2023-04-26T14:24:51.998Z,98046.34
2023-04-26T14:27:22.286Z,98067.25
2023-04-26T14:29:56.856Z,98062.06
2023-04-26T14:32:30.698Z,98052.41
2023-04-26T14:35:09.545Z,98062.41
2023-04-26T14:37:42.796Z,98050.16
2023-04-26T14:40:35.639Z,98063.16
2023-04-26T14:43:07.167Z,98054.28
2023-04-26T14:48:13.560Z,98067.44
2023-04-26T14:50:43.958Z,98058.13
2023-04-26T14:53:27.576Z,98054.44
2023-04-26T14:56:05.140Z,98052.38
2023-04-26T14:58:38.725Z,98046.25
2023-04-26T15:01:12.883Z,98054.47
2023-04-26T15:03:51.025Z,98058.78
2023-04-26T15:06:29.472Z,98063.31
2023-04-26T15:08:59.615Z,98053.72
2023-04-26T15:11:30.065Z,98062.94
2023-04-26T15:14:00.127Z,98058.59
2023-04-26T15:16:28.110Z,98061.91
2023-04-26T15:18:59.259Z,98064.03
2023-04-26T15:21:43.126Z,98057.50
2023-04-26T15:24:12.718Z,98062.31
2023-04-26T15:26:52.053Z,98057.84
2023-04-26T15:29:20.283Z,98062.94
2023-04-26T15:31:51.561Z,98052.81
2023-04-26T15:34:31.676Z,98056.88
2023-04-26T15:37:08.460Z,98062.31
2023-04-26T15:39:36.887Z,98049.06
2023-04-26T15:42:11.559Z,98059.44
2023-04-26T15:44:41.836Z,98059.66
2023-04-26T15:47:13.744Z,98052.03
2023-04-26T15:49:44.683Z,98062.53
2023-04-26T15:52:18.256Z,98051.56
2023-04-26T15:54:46.039Z,98063.13
2023-04-26T15:57:14.877Z,98055.00
2023-04-26T15:59:46.666Z,98066.66
2023-04-26T16:02:39.010Z,98048.03
2023-04-26T16:05:28.663Z,98067.78
2023-04-26T16:07:58.444Z,98055.84
2023-04-26T16:10:27.676Z,98050.59
2023-04-26T16:13:00.132Z,98060.44
2023-04-26T16:15:33.752Z,98064.88
2023-04-26T16:18:04.969Z,98062.66
2023-04-26T16:20:38.453Z,98074.75
2023-04-26T16:23:12.510Z,98069.50
2023-04-26T16:25:42.761Z,98074.19
2023-04-26T16:28:28.279Z,98076.06
2023-04-26T16:30:58.512Z,98084.91
2023-04-26T16:33:36.316Z,98087.78
2023-04-26T16:36:13.149Z,98086.28
2023-04-26T16:38:49.205Z,98086.00
2023-04-26T16:41:36.222Z,98082.94
2023-04-26T16:44:24.192Z,98080.53
2023-04-26T16:47:09.256Z,98087.44
2023-04-26T16:49:38.541Z,98082.41
2023-04-26T16:52:11.603Z,98080.09
2023-04-26T16:54:42.118Z,98084.66
2023-04-26T16:59:57.687Z,98091.06
2023-04-26T17:02:29.395Z,98088.16
2023-04-26T17:05:00.071Z,98085.06
2023-04-26T17:07:34.652Z,98085.84
2023-04-26T17:10:07.227Z,98100.22
2023-04-26T17:12:43.986Z,98093.19
2023-04-26T17:15:15.241Z,98104.63
2023-04-26T17:17:44.412Z,98097.50
2023-04-26T17:20:27.834Z,98096.81
2023-04-26T17:22:58.946Z,98106.09
2023-04-26T17:25:33.714Z,98119.16
2023-04-26T17:28:06.356Z,98116.38
2023-04-26T17:33:46.224Z,98120.41
2023-04-26T17:36:16.494Z,98113.31
2023-04-26T17:38:49.030Z,98134.91
2023-04-26T17:41:18.778Z,98139.38
2023-04-26T17:43:49.893Z,98141.91
2023-04-26T17:46:17.692Z,98146.09
2023-04-26T17:48:53.588Z,98140.97
2023-04-26T17:51:21.886Z,98136.19
2023-04-26T17:53:53.773Z,98139.31
2023-04-26T17:56:26.667Z,98163.69
2023-04-26T17:59:02.261Z,98147.34
2023-04-26T18:01:35.060Z,98182.59
2023-04-26T18:04:08.776Z,98195.53
2023-04-26T18:06:44.018Z,98182.09
2023-04-26T18:09:14.451Z,98203.84
2023-04-26T18:11:49.880Z,98211.88
2023-04-26T18:14:20.538Z,98208.91
2023-04-26T18:16:50.167Z,98215.13
2023-04-26T18:19:37.042Z,98219.16
2023-04-26T18:22:06.366Z,98225.06
2023-04-26T18:24:43.877Z,98231.53
2023-04-26T18:27:13.948Z,98232.53
2023-04-26T18:29:45.656Z,98245.25
2023-04-26T18:34:56.500Z,98256.69
2023-04-26T18:37:33.433Z,98257.16
2023-04-26T18:40:04.987Z,98243.47
2023-04-26T18:42:37.467Z,98272.66
2023-04-26T18:47:59.549Z,98278.66
2023-04-26T18:50:36.734Z,98252.25
2023-04-26T18:53:21.779Z,98296.50
2023-04-26T18:55:49.985Z,98298.47
2023-04-26T18:58:20.634Z,98308.50
2023-04-26T19:00:51.134Z,98288.09
2023-04-26T19:03:30.703Z,98308.06
2023-04-26T19:05:59.885Z,98303.56
2023-04-26T19:08:37.215Z,98322.56
2023-04-26T19:11:08.067Z,98319.56
2023-04-26T19:13:36.806Z,98335.38
2023-04-26T19:16:12.436Z,98335.38
2023-04-26T19:18:44.398Z,98337.28
2023-04-26T19:21:31.869Z,98338.94
2023-04-26T19:24:02.388Z,98330.41
2023-04-26T19:26:33.296Z,98335.06
2023-04-26T19:29:11.526Z,98329.47
2023-04-26T19:31:45.599Z,98338.88
2023-04-26T19:34:16.016Z,98312.44
2023-04-26T19:36:51.364Z,98330.59
2023-04-26T19:39:23.916Z,98332.91
2023-04-26T19:41:55.298Z,98333.78
2023-04-26T19:44:28.553Z,98334.53
2023-04-26T19:49:40.528Z,98340.84
2023-04-26T19:52:09.334Z,98312.25
2023-04-26T19:54:40.205Z,98341.69
2023-04-26T19:57:12.112Z,98350.25
2023-04-26T19:59:43.201Z,98345.72
2023-04-26T20:02:28.133Z,98352.19
2023-04-26T20:04:57.435Z,98349.72
2023-04-26T20:07:28.222Z,98336.91
2023-04-26T20:10:07.079Z,98336.25
2023-04-26T20:12:35.015Z,98366.25
2023-04-26T20:15:10.007Z,98365.19
2023-04-26T20:17:42.361Z,98372.06
2023-04-26T20:20:17.965Z,98376.16
2023-04-26T20:22:45.846Z,98360.63
2023-04-26T20:25:20.033Z,98379.34
2023-04-26T20:27:50.776Z,98380.66
2023-04-26T20:30:25.374Z,98361.72
2023-04-26T20:32:56.817Z,98388.84
2023-04-26T20:35:29.461Z,98394.44
2023-04-26T20:40:43.658Z,98394.38
2023-04-26T20:43:17.049Z,98391.06
2023-04-26T20:45:48.794Z,98398.38
2023-04-26T20:48:27.700Z,98409.91
2023-04-26T20:51:05.356Z,98383.06
2023-04-26T20:53:55.654Z,98400.81
2023-04-26T20:56:27.421Z,98416.47
2023-04-26T20:58:57.054Z,98409.69
2023-04-26T21:01:27.883Z,98419.03
2023-04-26T21:03:58.903Z,98417.06
2023-04-26T21:06:31.306Z,98425.25
2023-04-26T21:09:08.115Z,98438.19
2023-04-26T21:11:38.964Z,98432.88
2023-04-26T21:14:09.299Z,98437.50
2023-04-26T21:16:38.611Z,98442.66
2023-04-26T21:19:15.284Z,98446.00
2023-04-26T21:21:54.307Z,98439.16
2023-04-26T21:24:30.912Z,98420.81
2023-04-26T21:27:01.911Z,98439.75
2023-04-26T21:29:35.083Z,98449.38
2023-04-26T21:32:12.622Z,98448.69
2023-04-26T21:34:44.362Z,98450.41
2023-04-26T21:37:16.679Z,98454.97
2023-04-26T21:42:29.936Z,98455.53
2023-04-26T21:44:59.965Z,98458.22
2023-04-26T21:47:41.843Z,98464.13
2023-04-26T21:50:11.639Z,98473.06
2023-04-26T21:52:48.009Z,98470.75
2023-04-26T21:55:15.802Z,98463.47
2023-04-26T21:58:01.328Z,98471.34
2023-04-26T22:00:31.372Z,98479.50
2023-04-26T22:03:19.419Z,98485.09
2023-04-26T22:06:09.479Z,98499.03
2023-04-26T22:08:39.847Z,98498.28
2023-04-26T22:11:11.072Z,98474.34
2023-04-26T22:13:42.316Z,98509.84
2023-04-26T22:16:13.793Z,98506.31
2023-04-26T22:18:43.859Z,98515.06
2023-04-26T22:21:14.079Z,98523.03
2023-04-26T22:23:42.901Z,98512.69
2023-04-26T22:26:21.793Z,98522.31
2023-04-26T22:31:42.313Z,98532.66
2023-04-26T22:34:13.664Z,98532.16
2023-04-26T22:39:35.627Z,98529.16
2023-04-26T22:42:13.085Z,98531.75
2023-04-26T22:44:42.687Z,98522.00
2023-04-26T22:47:11.103Z,98491.00
2023-04-26T22:49:44.880Z,98494.50
2023-04-26T22:52:28.081Z,98487.88
2023-04-26T22:55:06.430Z,98487.88
2023-04-26T22:57:37.543Z,98487.28
2023-04-26T23:00:15.004Z,98486.56
2023-04-26T23:02:45.202Z,98494.75
2023-04-26T23:05:33.620Z,98496.13
2023-04-26T23:08:16.236Z,98502.19
2023-04-26T23:10:57.956Z,98507.00
2023-04-26T23:13:32.118Z,98520.22
2023-04-26T23:16:02.334Z,98533.03
2023-04-26T23:18:40.129Z,98551.16
2023-04-26T23:21:25.844Z,98546.97
2023-04-26T23:23:58.452Z,98554.56
2023-04-26T23:26:33.384Z,98563.59
2023-04-26T23:29:03.999Z,98562.34
2023-04-26T23:31:45.024Z,98568.53
2023-04-26T23:34:16.481Z,98565.84
2023-04-26T23:36:46.368Z,98565.69
2023-04-26T23:39:31.559Z,98555.78
2023-04-26T23:42:04.187Z,98542.72
2023-04-26T23:44:34.987Z,98560.47
2023-04-26T23:47:05.517Z,98560.44
2023-04-26T23:49:37.127Z,98545.34
2023-04-26T23:52:07.671Z,98544.22
2023-04-26T23:57:22.205Z,98533.34
2023-04-26T23:59:59.534Z,98546.63
